Saipan, MP (96950)

3:20 AM ChST on May 30, 2017 (GMT +1000)
Red Cross-Airport | | Change Station

Elev 215 ft 15.13 °N, 145.72 °E | Updated 7 seconds ago

Scattered Clouds
Scattered Clouds
80.1 °F
Feels Like 86 °F
N
3.0
Wind Variable Wind from East
Gusts 3.0 mph

Today
High -- | Low -- °F
--% Chance of Precip.
Yesterday
High -- | Low -- °F
Precip. -- in
Pressure 29.94 in
Visibility 10.0 miles
Clouds Scattered Clouds 1800 ft
Heat Index 86 °F
Dew Point 76 °F
Humidity 88%
Rainfall 0.00 in
Snow Depth Not available.
5:46 AM 6:43 PM
Waxing Crescent, 21% visible
METAR PGSN 291654Z 10003KT 10SM SCT018 28/25 A2987 RMK AO2 SLP138 T02780250 $
Pressure 29.94 in
Visibility 10.0 miles
Clouds Scattered Clouds 1800 ft
Heat Index 86 °F
Dew Point 76 °F
Humidity 88%
Rainfall 0.00 in
Snow Depth Not available.
5:46 AM 6:43 PM
Waxing Crescent, 21% visible
METAR PGSN 291654Z 10003KT 10SM SCT018 28/25 A2987 RMK AO2 SLP138 T02780250 $

Get Severe Weather Alerts

Thanks for signing up!

Be on the lookout for a verification email in your inbox.

You'll start receiving the daily forecast at 6 AM.

×

10-Day Weather Forecast

Almanac

Astronomy

May. 30, 2017 Rise Set
Actual Time
Civil Twilight
Nautical Twilight
Astronomical Twilight
Moon
Length of Visible Light
Length of Day
Tomorrow will be .
, % of the Moon is Illuminated

Today's Extremes

State Highs State Lows

Community

WunderPhotos

Category 6

Welcome to Category 6. This is the collective home for Weather Underground's featured writeups by Dr. Jeff Masters (right), Bob Henson (left), Chris Burt, and other regular contributors.

Nearby

Air Quality

  Air Quality AQ Index Pollutant
Not available.

Snow Depth

Station Depth Elevation

Earthquake Activity

City Distance Mag. Time & Date
Minimum magnitude displayed is 2.5.

Coastal Water Temperatures

Place Temperature

Stations

Nearby Weather Stations

Station Location Temp. Windchill Dew Point Humidity Wind Precip. Elev Updated Type
                   

Watches & Warnings

There are currently no watches in effect.